Time;durP1;ratioP1;P1;durP2;ratioP2;P2;SDS_P1;SDS_P2;PMS_P1;PMS_P2;Temp;Humidity;BMP_temperature;BMP_pressure;BME280_temperature;BME280_humidity;BME280_pressure;Samples;Min_cycle;Max_cycle;Signal;HPM_P1;HPM_P2
2023/05/27 00:04:30;;;;;;;;;;;;;;;13.96;100.00;96258.22;10473708;28;1900;-70
2023/05/27 00:09:33;;;;;;;;;;;;;;;13.88;100.00;96256.13;10474494;28;1939;-70
2023/05/27 00:14:35;;;;;;;;;;;;;;;13.72;100.00;96254.63;10467859;28;1942;-70
2023/05/27 00:19:38;;;;;;;;;;;;;;;13.58;100.00;96256.34;10471671;28;1914;-70
2023/05/27 00:24:41;;;;;;;;;;;;;;;13.53;100.00;96249.88;10474266;28;1967;-70
2023/05/27 00:29:44;;;;;;;;;;;;;;;13.41;100.00;96252.13;10473647;28;4512;-70
2023/05/27 00:34:46;;;;;;;;;;;;;;;13.34;100.00;96250.81;10478018;28;1906;-70
2023/05/27 00:39:49;;;;;;;;;;;;;;;13.22;100.00;96260.06;10474560;28;1991;-70
2023/05/27 00:44:52;;;;;;;;;;;;;;;13.14;100.00;96263.31;10472047;28;1963;-70
2023/05/27 00:49:55;;;;;;;;;;;;;;;13.06;100.00;96255.81;10469209;28;2018;-69
2023/05/27 00:54:58;;;;;;;;;;;;;;;12.95;100.00;96259.63;10468601;28;1853;-70
2023/05/27 01:00:00;;;;;;;;;;;;;;;12.89;100.00;96249.94;10470600;28;2002;-70
2023/05/27 01:05:03;;;;;;;;;;;;;;;12.86;100.00;96256.72;10477172;28;1943;-69
2023/05/27 01:10:05;;;;;;;;;;;;;;;12.80;100.00;96252.41;10473085;28;1947;-68
2023/05/27 01:15:08;;;;;;;;;;;;;;;12.73;100.00;96251.09;10467236;28;1954;-70
2023/05/27 01:20:11;;;;;;;;;;;;;;;12.66;100.00;96256.75;10474652;28;1975;-69
2023/05/27 01:25:14;;;;;;;;;;;;;;;12.62;100.00;96250.31;10473050;28;2617;-70
2023/05/27 01:30:17;;;;;;;;;;;;;;;12.51;100.00;96248.72;10473918;28;4477;-71
2023/05/27 01:35:19;;;;;;;;;;;;;;;12.44;100.00;96249.00;10477508;28;2116;-70
2023/05/27 01:40:22;;;;;;;;;;;;;;;12.38;100.00;96248.22;10475940;28;2010;-71
2023/05/27 01:45:25;;;;;;;;;;;;;;;12.29;100.00;96246.38;10463330;28;1932;-70
2023/05/27 01:50:30;;;;;;;;;;;;;;;12.23;100.00;96242.88;10468466;28;1967;-70
2023/05/27 01:55:32;;;;;;;;;;;;;;;12.21;100.00;96238.81;10472753;28;1904;-70
2023/05/27 02:00:35;;;;;;;;;;;;;;;12.12;100.00;96246.66;10479225;28;1982;-70
2023/05/27 02:05:38;;;;;;;;;;;;;;;12.10;100.00;96243.41;10471082;28;2047;-70
2023/05/27 02:10:40;;;;;;;;;;;;;;;12.06;100.00;96236.94;10472430;28;1920;-71
2023/05/27 02:15:43;;;;;;;;;;;;;;;11.96;100.00;96243.16;10470129;28;1963;-71
2023/05/27 02:20:46;;;;;;;;;;;;;;;11.97;100.00;96244.78;10473630;28;2364;-72
2023/05/27 02:25:49;;;;;;;;;;;;;;;11.90;100.00;96238.88;10465299;28;1991;-71
2023/05/27 02:30:52;;;;;;;;;;;;;;;11.92;100.00;96235.91;10469330;28;4480;-71
2023/05/27 02:35:54;;;;;;;;;;;;;;;11.88;100.00;96244.50;10473674;28;2208;-72
2023/05/27 02:40:57;;;;;;;;;;;;;;;11.74;100.00;96234.50;10471767;28;2024;-72
2023/05/27 02:45:59;;;;;;;;;;;;;;;11.71;100.00;96237.75;10471111;28;1986;-71
2023/05/27 02:51:02;;;;;;;;;;;;;;;11.74;100.00;96229.94;10468287;28;1990;-72
2023/05/27 02:56:04;;;;;;;;;;;;;;;11.69;100.00;96238.00;10478686;28;1968;-72
2023/05/27 03:01:07;;;;;;;;;;;;;;;11.63;100.00;96239.09;10473080;28;1989;-71
2023/05/27 03:06:09;;;;;;;;;;;;;;;11.63;100.00;96229.13;10478120;28;1972;-75
2023/05/27 03:11:12;;;;;;;;;;;;;;;11.66;100.00;96222.41;10477571;28;1952;-71
2023/05/27 03:16:14;;;;;;;;;;;;;;;11.58;100.00;96220.25;10478218;28;1920;-71
2023/05/27 03:21:17;;;;;;;;;;;;;;;11.50;100.00;96226.16;10475275;28;1969;-71
2023/05/27 03:26:19;;;;;;;;;;;;;;;11.56;100.00;96231.28;10473575;28;1924;-71
2023/05/27 03:31:21;;;;;;;;;;;;;;;11.52;100.00;96224.03;10477500;28;1986;-71
2023/05/27 03:36:24;;;;;;;;;;;;;;;11.50;100.00;96228.84;10475515;28;1946;-70
2023/05/27 03:41:27;;;;;;;;;;;;;;;11.49;100.00;96233.41;10474523;28;1971;-69
2023/05/27 03:46:29;;;;;;;;;;;;;;;11.48;100.00;96234.50;10473437;28;1975;-69
2023/05/27 03:51:32;;;;;;;;;;;;;;;11.55;100.00;96232.34;10473668;28;1971;-71
2023/05/27 03:56:35;;;;;;;;;;;;;;;11.62;100.00;96218.63;10479845;28;1943;-70
2023/05/27 04:01:37;;;;;;;;;;;;;;;11.74;100.00;96221.84;10476114;28;1931;-72
2023/05/27 04:06:41;;;;;;;;;;;;;;;11.75;100.00;96226.16;10470109;28;1955;-69
2023/05/27 04:11:44;;;;;;;;;;;;;;;11.83;100.00;96227.53;10477182;28;2094;-69
2023/05/27 04:16:46;;;;;;;;;;;;;;;11.93;100.00;96226.72;10476763;28;2156;-69
2023/05/27 04:21:49;;;;;;;;;;;;;;;12.11;100.00;96229.66;10479075;28;1997;-71
2023/05/27 04:26:52;;;;;;;;;;;;;;;12.21;100.00;96223.44;10479626;28;1966;-74
2023/05/27 04:31:56;;;;;;;;;;;;;;;12.49;100.00;96224.75;10481095;28;2052;-72
2023/05/27 04:37:00;;;;;;;;;;;;;;;12.58;100.00;96222.28;10472583;28;1923;-69
2023/05/27 04:42:03;;;;;;;;;;;;;;;12.59;100.00;96224.69;10472915;28;1833;-73
2023/05/27 04:47:05;;;;;;;;;;;;;;;12.78;100.00;96227.59;10473112;28;1974;-69
2023/05/27 04:52:09;;;;;;;;;;;;;;;13.10;100.00;96215.56;10483131;28;1931;-69
2023/05/27 04:57:11;;;;;;;;;;;;;;;13.14;100.00;96213.94;10475482;28;1977;-75
2023/05/27 05:02:21;;;;;;;;;;;;;;;12.98;100.00;96216.72;10479792;28;1804;-69
2023/05/27 05:07:24;;;;;;;;;;;;;;;13.05;100.00;96212.91;10476964;28;1924;-69
2023/05/27 05:12:27;;;;;;;;;;;;;;;13.85;100.00;96210.75;10471527;28;2211;-70
2023/05/27 05:17:29;;;;;;;;;;;;;;;13.69;100.00;96207.38;10469910;28;1976;-69
2023/05/27 05:22:32;;;;;;;;;;;;;;;14.10;100.00;96208.91;10471924;28;2035;-70
2023/05/27 05:27:36;;;;;;;;;;;;;;;14.32;100.00;96218.16;10475608;28;2598;-70
2023/05/27 05:32:39;;;;;;;;;;;;;;;14.42;100.00;96219.13;10473314;28;2170;-70
2023/05/27 05:37:41;;;;;;;;;;;;;;;14.52;100.00;96229.88;10475936;28;2366;-73
2023/05/27 05:42:44;;;;;;;;;;;;;;;14.53;100.00;96229.59;10479289;28;1954;-72
2023/05/27 05:47:46;;;;;;;;;;;;;;;14.43;100.00;96232.34;10478965;28;2022;-71
2023/05/27 05:52:49;;;;;;;;;;;;;;;14.93;100.00;96232.91;10473822;28;2022;-71
2023/05/27 05:57:51;;;;;;;;;;;;;;;15.10;100.00;96230.53;10477406;28;1973;-68
2023/05/27 06:02:53;;;;;;;;;;;;;;;15.00;100.00;96229.84;10480125;28;2153;-69
2023/05/27 06:07:56;;;;;;;;;;;;;;;14.99;100.00;96231.75;10464613;28;1983;-72
2023/05/27 06:12:58;;;;;;;;;;;;;;;15.29;100.00;96240.56;10469723;28;1956;-71
2023/05/27 06:18:01;;;;;;;;;;;;;;;15.61;100.00;96226.28;10472331;28;1979;-69
2023/05/27 06:23:03;;;;;;;;;;;;;;;16.05;100.00;96236.72;10476927;28;1974;-70
2023/05/27 06:28:06;;;;;;;;;;;;;;;15.66;100.00;96234.38;10472381;28;4391;-72
2023/05/27 06:33:08;;;;;;;;;;;;;;;15.74;100.00;96239.13;10479782;28;2221;-70
2023/05/27 06:38:11;;;;;;;;;;;;;;;15.89;100.00;96238.06;10485200;28;1985;-70
2023/05/27 06:43:13;;;;;;;;;;;;;;;16.00;100.00;96222.44;10480366;28;1908;-70
2023/05/27 06:48:15;;;;;;;;;;;;;;;16.23;100.00;96220.69;10479650;28;2021;-69
2023/05/27 06:53:18;;;;;;;;;;;;;;;16.29;100.00;96236.59;10478531;28;1997;-69
2023/05/27 06:58:20;;;;;;;;;;;;;;;17.00;100.00;96224.38;10479604;28;2122;-72
2023/05/27 07:03:23;;;;;;;;;;;;;;;15.95;100.00;96220.63;10485944;28;2249;-70
2023/05/27 07:08:26;;;;;;;;;;;;;;;17.17;100.00;96229.16;10474634;28;1932;-70
2023/05/27 07:13:28;;;;;;;;;;;;;;;16.77;100.00;96232.72;10467550;28;1986;-69
2023/05/27 07:18:30;;;;;;;;;;;;;;;16.71;100.00;96221.97;10470429;28;1971;-72
2023/05/27 07:23:33;;;;;;;;;;;;;;;17.25;100.00;96228.47;10475916;28;1983;-72
2023/05/27 07:28:37;;;;;;;;;;;;;;;16.75;100.00;96220.28;10475286;28;4373;-77
2023/05/27 07:33:40;;;;;;;;;;;;;;;17.61;100.00;96216.78;10473318;28;1933;-73
2023/05/27 07:38:43;;;;;;;;;;;;;;;17.44;100.00;96209.31;10471305;28;2039;-74
2023/05/27 07:43:45;;;;;;;;;;;;;;;17.45;100.00;96201.97;10472155;28;1915;-73
2023/05/27 07:48:48;;;;;;;;;;;;;;;17.48;100.00;96204.03;10481080;28;1916;-72
2023/05/27 07:53:50;;;;;;;;;;;;;;;17.45;100.00;96207.38;10471375;28;1978;-73
2023/05/27 07:58:53;;;;;;;;;;;;;;;17.94;100.00;96213.84;10465032;28;2398;-72
2023/05/27 08:03:56;;;;;;;;;;;;;;;17.91;100.00;96214.50;10480242;28;1945;-71
2023/05/27 08:09:04;;;;;;;;;;;;;;;17.79;100.00;96213.13;10472902;28;2050;-71
2023/05/27 08:14:06;;;;;;;;;;;;;;;17.93;100.00;96212.25;10476718;28;1892;-73
2023/05/27 08:19:09;;;;;;;;;;;;;;;17.91;100.00;96204.41;10480911;28;1914;-77
2023/05/27 08:24:12;;;;;;;;;;;;;;;17.74;100.00;96205.09;10477978;28;1983;-75
2023/05/27 08:29:15;;;;;;;;;;;;;;;18.13;100.00;96194.63;10472303;28;4394;-74
2023/05/27 08:34:17;;;;;;;;;;;;;;;18.16;100.00;96183.94;10465738;28;1963;-74
2023/05/27 08:39:20;;;;;;;;;;;;;;;18.71;100.00;96182.78;10470688;28;1975;-73
2023/05/27 08:44:22;;;;;;;;;;;;;;;18.53;100.00;96176.44;10474590;28;1931;-73
2023/05/27 08:49:25;;;;;;;;;;;;;;;18.90;100.00;96186.84;10473051;28;1939;-74
2023/05/27 08:54:27;;;;;;;;;;;;;;;18.42;100.00;96189.50;10466770;28;2737;-75
2023/05/27 08:59:30;;;;;;;;;;;;;;;18.70;100.00;96179.22;10464685;28;1982;-75
2023/05/27 09:04:33;;;;;;;;;;;;;;;18.71;100.00;96183.56;10466516;28;1920;-75
2023/05/27 09:09:35;;;;;;;;;;;;;;;18.52;100.00;96181.06;10469388;28;1962;-73
2023/05/27 09:14:39;;;;;;;;;;;;;;;18.81;100.00;96172.38;10474337;28;1952;-73
2023/05/27 09:19:42;;;;;;;;;;;;;;;18.59;100.00;96170.53;10471324;28;2259;-71
2023/05/27 09:24:44;;;;;;;;;;;;;;;18.91;100.00;96174.00;10473549;28;1985;-71
2023/05/27 09:29:47;;;;;;;;;;;;;;;18.69;100.00;96174.09;10473005;28;4508;-71
2023/05/27 09:34:50;;;;;;;;;;;;;;;18.59;100.00;96164.28;10476165;28;1884;-71
2023/05/27 09:39:52;;;;;;;;;;;;;;;18.84;100.00;96154.59;10471234;28;1956;-74
2023/05/27 09:44:55;;;;;;;;;;;;;;;18.82;100.00;96152.19;10468521;28;1927;-71
2023/05/27 09:49:57;;;;;;;;;;;;;;;19.26;100.00;96149.53;10469830;28;1891;-71
2023/05/27 09:55:00;;;;;;;;;;;;;;;19.29;100.00;96159.81;10472692;28;2254;-72
2023/05/27 10:00:05;;;;;;;;;;;;;;;19.29;95.58;96163.34;10466929;28;1924;-73
2023/05/27 10:05:07;;;;;;;;;;;;;;;19.56;96.65;96148.56;10472609;28;2753;-73
2023/05/27 10:10:11;;;;;;;;;;;;;;;19.42;96.58;96154.19;10482903;28;1966;-73
2023/05/27 10:15:13;;;;;;;;;;;;;;;19.42;95.47;96143.28;10474225;28;2328;-72
2023/05/27 10:20:16;;;;;;;;;;;;;;;19.69;90.61;96142.16;10484605;28;2079;-72
2023/05/27 10:25:19;;;;;;;;;;;;;;;19.95;92.02;96136.66;10477852;28;2000;-72
2023/05/27 10:30:21;;;;;;;;;;;;;;;20.03;88.40;96131.50;10483819;28;4676;-72
2023/05/27 10:35:24;;;;;;;;;;;;;;;20.08;80.84;96131.34;10479660;28;1941;-72
2023/05/27 10:40:26;;;;;;;;;;;;;;;20.73;74.17;96121.94;10473234;28;2267;-74
2023/05/27 10:45:30;;;;;;;;;;;;;;;21.04;70.45;96121.59;10478044;28;1931;-74
2023/05/27 10:50:34;;;;;;;;;;;;;;;20.87;68.57;96108.84;10477314;28;2444;-72
2023/05/27 10:55:37;;;;;;;;;;;;;;;21.54;63.57;96109.81;10476979;28;2049;-72
2023/05/27 11:00:40;;;;;;;;;;;;;;;21.45;64.65;96106.38;10475596;28;1962;-71
2023/05/27 11:05:42;;;;;;;;;;;;;;;21.77;62.17;96107.50;10470136;28;1982;-73
2023/05/27 11:10:45;;;;;;;;;;;;;;;21.41;64.18;96106.22;10478891;28;1977;-73
2023/05/27 11:15:48;;;;;;;;;;;;;;;21.37;66.15;96094.34;10480612;28;1985;-73
2023/05/27 11:20:51;;;;;;;;;;;;;;;21.80;64.07;96084.94;10478732;28;2074;-72
2023/05/27 11:25:54;;;;;;;;;;;;;;;20.99;69.32;96094.44;10480226;28;1845;-72
2023/05/27 11:30:57;;;;;;;;;;;;;;;20.72;66.44;96082.09;10480153;28;4323;-70
2023/05/27 11:36:00;;;;;;;;;;;;;;;20.34;68.50;96066.53;10483082;28;1877;-74
2023/05/27 11:41:02;;;;;;;;;;;;;;;19.97;71.35;96063.47;10476103;28;1971;-73
2023/05/27 11:46:05;;;;;;;;;;;;;;;20.56;67.13;96061.97;10475220;28;2171;-72
2023/05/27 11:51:08;;;;;;;;;;;;;;;20.44;64.11;96049.00;10472984;28;1920;-72
2023/05/27 11:56:10;;;;;;;;;;;;;;;20.35;62.02;96062.66;10477841;28;1889;-72
2023/05/27 12:01:13;;;;;;;;;;;;;;;20.31;61.48;96045.38;10470015;28;2129;-72
2023/05/27 12:06:15;;;;;;;;;;;;;;;21.06;59.09;96034.63;10477786;28;1854;-72
2023/05/27 12:11:18;;;;;;;;;;;;;;;20.96;56.66;96043.19;10474853;28;1801;-72
2023/05/27 12:16:20;;;;;;;;;;;;;;;20.97;57.82;96022.94;10471541;28;1897;-72
2023/05/27 12:21:23;;;;;;;;;;;;;;;20.72;53.76;96028.25;10477856;28;1990;-73
2023/05/27 12:26:26;;;;;;;;;;;;;;;21.15;55.49;96018.13;10472415;28;4528;-70
2023/05/27 12:31:28;;;;;;;;;;;;;;;20.85;54.93;96023.66;10473245;28;1887;-73
2023/05/27 12:36:31;;;;;;;;;;;;;;;21.08;54.37;96005.00;10474268;28;1898;-73
2023/05/27 12:41:34;;;;;;;;;;;;;;;21.52;54.73;96002.69;10480287;28;2376;-72
2023/05/27 12:46:36;;;;;;;;;;;;;;;21.45;57.09;95989.56;10471420;28;1877;-72
2023/05/27 12:51:39;;;;;;;;;;;;;;;21.00;55.06;96008.63;10477263;28;1900;-74
2023/05/27 12:56:42;;;;;;;;;;;;;;;21.37;52.22;96001.38;10472404;28;1973;-73
2023/05/27 13:01:44;;;;;;;;;;;;;;;21.53;49.76;95990.59;10473464;28;1980;-73
2023/05/27 13:06:47;;;;;;;;;;;;;;;21.32;48.98;95979.72;10464824;28;1853;-73
2023/05/27 13:11:49;;;;;;;;;;;;;;;21.39;47.89;95979.97;10473204;28;1892;-72
2023/05/27 13:16:53;;;;;;;;;;;;;;;21.36;47.73;95977.91;10469124;28;1956;-78
2023/05/27 13:21:55;;;;;;;;;;;;;;;21.25;48.28;95973.97;10471275;28;1979;-72
2023/05/27 13:26:58;;;;;;;;;;;;;;;21.08;47.98;95960.47;10469352;28;4466;-72
2023/05/27 13:32:00;;;;;;;;;;;;;;;21.36;49.79;95956.03;10473753;28;1887;-72
2023/05/27 13:37:03;;;;;;;;;;;;;;;21.59;50.20;95948.22;10464991;28;2266;-74
2023/05/27 13:42:06;;;;;;;;;;;;;;;21.11;49.78;95938.72;10468982;28;1902;-74
2023/05/27 13:47:09;;;;;;;;;;;;;;;21.04;49.85;95944.72;10467890;28;2386;-72
2023/05/27 13:52:11;;;;;;;;;;;;;;;20.99;48.39;95934.03;10472305;28;1821;-74
2023/05/27 13:57:13;;;;;;;;;;;;;;;21.40;50.13;95950.69;10469173;28;2177;-74
2023/05/27 14:02:16;;;;;;;;;;;;;;;21.07;50.59;95926.88;10472480;28;1937;-73
2023/05/27 14:07:19;;;;;;;;;;;;;;;21.61;49.81;95928.72;10465329;28;1888;-73
2023/05/27 14:12:21;;;;;;;;;;;;;;;21.57;47.63;95928.63;10471197;28;1953;-72
2023/05/27 14:17:23;;;;;;;;;;;;;;;21.20;46.42;95916.78;10470097;28;1932;-73
2023/05/27 14:22:26;;;;;;;;;;;;;;;21.51;47.12;95916.31;10466497;28;1906;-72
2023/05/27 14:27:29;;;;;;;;;;;;;;;21.42;44.81;95905.44;10463483;28;1845;-73
2023/05/27 14:32:31;;;;;;;;;;;;;;;21.45;45.38;95898.53;10465844;28;2408;-72
2023/05/27 14:37:33;;;;;;;;;;;;;;;21.56;44.23;95900.44;10474151;28;1845;-73
2023/05/27 14:42:36;;;;;;;;;;;;;;;21.39;45.65;95897.94;10465316;28;1993;-72
2023/05/27 14:47:38;;;;;;;;;;;;;;;21.68;46.25;95912.53;10475293;28;2008;-73
2023/05/27 14:52:41;;;;;;;;;;;;;;;21.43;47.17;95896.09;10469531;28;1901;-72
2023/05/27 14:57:43;;;;;;;;;;;;;;;21.49;47.21;95889.28;10476579;28;1909;-72
2023/05/27 15:02:46;;;;;;;;;;;;;;;21.91;46.08;95893.75;10469662;28;1985;-73
2023/05/27 15:07:49;;;;;;;;;;;;;;;21.80;44.95;95887.91;10471063;28;1841;-73
2023/05/27 15:12:51;;;;;;;;;;;;;;;22.09;43.07;95890.44;10473886;28;1959;-74
2023/05/27 15:17:53;;;;;;;;;;;;;;;21.88;40.58;95888.94;10477806;28;1841;-72
2023/05/27 15:22:56;;;;;;;;;;;;;;;21.99;41.13;95885.41;10469937;28;1902;-73
2023/05/27 15:27:59;;;;;;;;;;;;;;;21.81;42.44;95887.56;10471292;28;2273;-74
2023/05/27 15:33:01;;;;;;;;;;;;;;;21.83;42.11;95882.56;10472980;28;2031;-73
2023/05/27 15:38:04;;;;;;;;;;;;;;;21.61;41.61;95885.75;10474872;28;1872;-76
2023/05/27 15:43:08;;;;;;;;;;;;;;;21.61;41.65;95876.75;10470901;28;1982;-73
2023/05/27 15:48:10;;;;;;;;;;;;;;;21.52;40.91;95866.72;10470370;28;1879;-74
2023/05/27 15:53:13;;;;;;;;;;;;;;;21.56;39.46;95864.88;10476530;28;1862;-72
2023/05/27 15:58:15;;;;;;;;;;;;;;;21.49;39.21;95866.59;10475135;28;1835;-72
2023/05/27 16:03:18;;;;;;;;;;;;;;;21.36;39.59;95856.78;10472471;28;1917;-71
2023/05/27 16:08:20;;;;;;;;;;;;;;;21.12;37.77;95862.97;10472258;28;1866;-72
2023/05/27 16:13:23;;;;;;;;;;;;;;;21.03;38.04;95865.81;10472359;28;1836;-73
2023/05/27 16:18:25;;;;;;;;;;;;;;;20.94;38.72;95857.72;10471626;28;1873;-71
2023/05/27 16:23:27;;;;;;;;;;;;;;;20.79;39.18;95850.16;10474958;28;1914;-74
2023/05/27 16:28:30;;;;;;;;;;;;;;;20.64;38.06;95848.88;10469979;28;4434;-74
2023/05/27 16:33:32;;;;;;;;;;;;;;;20.72;39.00;95844.44;10464882;28;1969;-72
2023/05/27 16:38:35;;;;;;;;;;;;;;;20.85;39.41;95837.09;10472871;28;1873;-71
2023/05/27 16:43:37;;;;;;;;;;;;;;;20.78;40.62;95829.44;10465481;28;1914;-75
2023/05/27 16:48:39;;;;;;;;;;;;;;;20.61;40.31;95829.59;10470690;28;2127;-73
2023/05/27 16:53:42;;;;;;;;;;;;;;;20.43;42.30;95832.50;10469591;28;1873;-73
2023/05/27 16:58:44;;;;;;;;;;;;;;;20.25;42.17;95829.09;10465741;28;1940;-72
2023/05/27 17:03:47;;;;;;;;;;;;;;;20.14;41.48;95825.19;10466070;28;2111;-73
2023/05/27 17:08:49;;;;;;;;;;;;;;;20.05;41.77;95819.00;10473659;28;2241;-74
2023/05/27 17:13:52;;;;;;;;;;;;;;;19.96;43.25;95821.78;10472581;28;1869;-73
2023/05/27 17:18:54;;;;;;;;;;;;;;;19.93;44.18;95818.94;10469648;28;1883;-74
2023/05/27 17:23:57;;;;;;;;;;;;;;;19.82;45.13;95815.78;10467930;28;2390;-72
2023/05/27 17:28:59;;;;;;;;;;;;;;;19.82;44.72;95820.44;10469725;28;1833;-71
2023/05/27 17:34:02;;;;;;;;;;;;;;;19.63;44.28;95832.59;10469292;28;2126;-73
2023/05/27 17:39:05;;;;;;;;;;;;;;;19.54;45.21;95817.41;10467536;28;1893;-73
2023/05/27 17:44:08;;;;;;;;;;;;;;;19.44;43.90;95824.81;10469582;28;1910;-73
2023/05/27 17:49:10;;;;;;;;;;;;;;;19.39;45.58;95830.44;10472385;28;1865;-73
2023/05/27 17:54:13;;;;;;;;;;;;;;;19.25;44.79;95831.78;10467805;28;1849;-71
2023/05/27 17:59:15;;;;;;;;;;;;;;;19.13;44.34;95835.22;10474158;28;1881;-73
2023/05/27 18:04:18;;;;;;;;;;;;;;;19.00;44.81;95841.66;10465951;28;1911;-71
2023/05/27 18:09:20;;;;;;;;;;;;;;;18.87;45.50;95838.81;10471989;28;1903;-73
2023/05/27 18:14:22;;;;;;;;;;;;;;;18.75;46.18;95838.69;10467010;28;1959;-73
2023/05/27 18:19:25;;;;;;;;;;;;;;;18.64;46.75;95840.13;10464807;28;2393;-78
2023/05/27 18:24:27;;;;;;;;;;;;;;;18.53;47.07;95849.75;10469075;28;1995;-72
2023/05/27 18:29:29;;;;;;;;;;;;;;;18.38;47.87;95856.47;10479716;28;4331;-74
2023/05/27 18:34:32;;;;;;;;;;;;;;;18.23;48.21;95855.06;10472611;28;1846;-73
2023/05/27 18:39:34;;;;;;;;;;;;;;;18.15;49.09;95849.63;10470183;28;1892;-72
2023/05/27 18:44:37;;;;;;;;;;;;;;;17.85;50.62;95849.41;10476083;28;1918;-73
2023/05/27 18:49:40;;;;;;;;;;;;;;;17.71;52.23;95846.00;10487455;28;1538;-73
2023/05/27 18:54:42;;;;;;;;;;;;;;;17.46;54.73;95851.06;10484656;28;1486;-73
2023/05/27 18:59:45;;;;;;;;;;;;;;;17.29;57.52;95857.25;10476488;28;1880;-72
2023/05/27 19:04:47;;;;;;;;;;;;;;;17.24;59.96;95862.00;10477470;28;1975;-73
2023/05/27 19:09:52;;;;;;;;;;;;;;;17.03;63.84;95865.28;10472948;28;1844;-73
2023/05/27 19:14:55;;;;;;;;;;;;;;;16.86;66.86;95864.38;10467965;28;2139;-72
2023/05/27 19:19:57;;;;;;;;;;;;;;;16.82;69.39;95868.84;10470938;28;1861;-74
2023/05/27 19:25:00;;;;;;;;;;;;;;;16.65;72.98;95864.06;10471102;28;1925;-72
2023/05/27 19:30:02;;;;;;;;;;;;;;;16.46;77.34;95866.97;10472466;28;4449;-73
2023/05/27 19:35:04;;;;;;;;;;;;;;;16.27;81.19;95866.34;10470228;28;1912;-74
2023/05/27 19:40:07;;;;;;;;;;;;;;;16.07;85.71;95871.16;10472360;28;1880;-72
2023/05/27 19:45:09;;;;;;;;;;;;;;;16.04;87.28;95869.06;10470505;28;1929;-72
2023/05/27 19:50:12;;;;;;;;;;;;;;;15.85;90.24;95873.81;10472074;28;1909;-73
2023/05/27 19:55:15;;;;;;;;;;;;;;;15.79;92.54;95872.34;10475747;28;1888;-72
2023/05/27 20:00:18;;;;;;;;;;;;;;;15.72;94.21;95866.53;10476127;28;1920;-70
2023/05/27 20:05:21;;;;;;;;;;;;;;;15.60;95.43;95873.22;10477651;28;1951;-73
2023/05/27 20:10:24;;;;;;;;;;;;;;;15.51;97.09;95868.81;10476274;28;2446;-76
2023/05/27 20:15:26;;;;;;;;;;;;;;;15.44;98.62;95874.63;10464915;28;1909;-71
2023/05/27 20:20:31;;;;;;;;;;;;;;;15.35;100.00;95871.84;10475065;28;1856;-73
2023/05/27 20:25:34;;;;;;;;;;;;;;;15.35;100.00;95868.31;10473761;28;2078;-73
2023/05/27 20:30:37;;;;;;;;;;;;;;;15.33;100.00;95863.22;10470760;28;4454;-73
2023/05/27 20:35:39;;;;;;;;;;;;;;;15.14;100.00;95874.16;10477335;28;1860;-73
2023/05/27 20:40:42;;;;;;;;;;;;;;;15.11;100.00;95871.22;10476974;28;1852;-73
2023/05/27 20:45:44;;;;;;;;;;;;;;;15.02;100.00;95862.19;10469802;28;1981;-72
2023/05/27 20:50:46;;;;;;;;;;;;;;;15.07;100.00;95860.19;10473730;28;1869;-76
2023/05/27 20:55:49;;;;;;;;;;;;;;;15.06;100.00;95853.16;10475616;28;1773;-72
2023/05/27 21:00:51;;;;;;;;;;;;;;;14.82;100.00;95852.53;10474230;28;1872;-73
2023/05/27 21:05:54;;;;;;;;;;;;;;;14.67;100.00;95858.22;10469760;28;2385;-74
2023/05/27 21:10:56;;;;;;;;;;;;;;;14.75;100.00;95852.91;10472948;28;1938;-70
2023/05/27 21:15:59;;;;;;;;;;;;;;;14.68;100.00;95851.69;10467979;28;1865;-70
2023/05/27 21:21:02;;;;;;;;;;;;;;;14.63;100.00;95849.09;10471714;28;1945;-70
2023/05/27 21:26:04;;;;;;;;;;;;;;;14.65;100.00;95838.78;10475360;28;1909;-69
2023/05/27 21:31:07;;;;;;;;;;;;;;;14.53;100.00;95834.66;10475285;28;4491;-69
2023/05/27 21:36:10;;;;;;;;;;;;;;;14.29;100.00;95832.03;10498305;28;1884;-70
2023/05/27 21:41:12;;;;;;;;;;;;;;;14.23;100.00;95827.00;10467976;28;1890;-75
2023/05/27 21:46:14;;;;;;;;;;;;;;;14.07;100.00;95831.88;10475235;28;1961;-71
2023/05/27 21:51:17;;;;;;;;;;;;;;;13.98;100.00;95834.41;10475298;28;1894;-69
2023/05/27 21:56:19;;;;;;;;;;;;;;;13.82;100.00;95840.34;10472924;28;1893;-69
2023/05/27 22:01:22;;;;;;;;;;;;;;;13.74;100.00;95847.19;10475224;28;2011;-71
2023/05/27 22:06:24;;;;;;;;;;;;;;;13.80;100.00;95843.31;10483500;28;2474;-71
2023/05/27 22:11:27;;;;;;;;;;;;;;;13.94;100.00;95843.41;10477510;28;1866;-69
2023/05/27 22:16:29;;;;;;;;;;;;;;;13.94;100.00;95840.72;10473019;28;1897;-72
2023/05/27 22:21:32;;;;;;;;;;;;;;;13.88;100.00;95829.19;10475615;28;1910;-69
2023/05/27 22:26:34;;;;;;;;;;;;;;;13.80;100.00;95837.91;10481196;28;4134;-70
2023/05/27 22:31:36;;;;;;;;;;;;;;;13.70;100.00;95825.38;10481423;28;1904;-70
2023/05/27 22:36:39;;;;;;;;;;;;;;;13.68;100.00;95824.06;10476130;28;1949;-70
2023/05/27 22:41:41;;;;;;;;;;;;;;;13.56;100.00;95815.59;10478440;28;1914;-75
2023/05/27 22:46:44;;;;;;;;;;;;;;;13.47;100.00;95805.41;10474123;28;2035;-69
2023/05/27 22:51:47;;;;;;;;;;;;;;;13.50;100.00;95806.75;10471976;28;1905;-72
2023/05/27 22:56:50;;;;;;;;;;;;;;;13.40;100.00;95801.47;10478203;28;1925;-70
2023/05/27 23:01:52;;;;;;;;;;;;;;;13.35;100.00;95798.84;10474426;28;2333;-70
2023/05/27 23:06:55;;;;;;;;;;;;;;;13.34;100.00;95795.34;10475558;28;1933;-70
2023/05/27 23:11:57;;;;;;;;;;;;;;;13.25;100.00;95803.28;10475011;28;1858;-71
2023/05/27 23:17:00;;;;;;;;;;;;;;;13.13;100.00;95800.16;10473783;28;1921;-69
2023/05/27 23:22:03;;;;;;;;;;;;;;;13.21;100.00;95796.06;10468876;28;1956;-69
2023/05/27 23:27:06;;;;;;;;;;;;;;;13.10;100.00;95792.63;10468329;28;1963;-74
2023/05/27 23:32:08;;;;;;;;;;;;;;;13.09;100.00;95782.13;10471392;28;1874;-70
2023/05/27 23:37:11;;;;;;;;;;;;;;;12.98;100.00;95782.28;10476881;28;1867;-69
2023/05/27 23:42:13;;;;;;;;;;;;;;;12.90;100.00;95780.19;10471288;28;1923;-70
2023/05/27 23:47:16;;;;;;;;;;;;;;;12.84;100.00;95773.25;10473439;28;1869;-70
2023/05/27 23:52:20;;;;;;;;;;;;;;;12.77;100.00;95769.31;10473607;28;1896;-70
2023/05/27 23:57:23;;;;;;;;;;;;;;;12.72;100.00;95770.16;10473456;28;2301;-70
